Foxburg, PA (16036)

5:54 AM EST on February 14, 2016 (GMT -0500)
Kennerdell | | Change Station
CLOSE
Current Station
Personal Weather Station
Location: Kennerdell, PA
Elevation: 925 ft
Nearby Weather Stations
Active Advisory: Wind Chill Advisory Active Notice: Local Storm Report

Elev 925 ft 41.27 °N, 79.81 °W | Updated 13 seconds ago

Overcast
Overcast
-0.5 °F
Feels Like -25 °F
N
26.6
Wind Variable Wind from West
Gusts 26.6 mph

Today
High -- | Low -- °F
--% Chance of Precip.
Yesterday
High -- | Low -- °F
Precip. -- in
Pressure 30.39 in
Visibility 5.0 miles
Clouds Overcast 4400 ft
Windchill -25 °F
Dew Point -5 °F
Humidity 81%
Rainfall 0.00 in
Snow Depth Not available.
7:15 AM 5:51 PM
Waxing Crescent, 40% visible
METAR KFKL 141035Z 24003KT 5SM OVC044 M17/M21 A3039 RMK AO1
Pressure 30.39 in
Visibility 5.0 miles
Clouds Overcast 4400 ft
Windchill -25 °F
Dew Point -5 °F
Humidity 81%
Rainfall 0.00 in
Snow Depth Not available.
7:15 AM 5:51 PM
Waxing Crescent, 40% visible
METAR KFKL 141035Z 24003KT 5SM OVC044 M17/M21 A3039 RMK AO1

10-Day Weather Forecast

Almanac

Astronomy

Feb. 14, 2016 Rise Set
Actual Time
Civil Twilight
Nautical Twilight
Astronomical Twilight
Moon
Length of Visible Light
Length of Day
Tomorrow will be .
, % of the Moon is Illuminated

Today's Extremes

State Highs State Lows

Community

WunderPhotos

Upload Photos

1,892,765 photos uploaded!

WunderBlog® & News

Nearby

Air Quality

  Air Quality AQ Index Pollutant
Not available.

Snow Depth

Station Depth Elevation

Earthquake Activity

City Distance Mag. Time & Date
Minimum magnitude displayed is 2.5.

Coastal Water Temperatures

Place Temperature

Stations

Nearby Weather Stations

Station Location Temp. Windchill Dew Point Humidity Wind Precip. Elev Updated Type
                   

Watches & Warnings

Wind Chill Advisory
Issued: 3:27 AM EST Feb. 14, 2016 – National Weather Service

... Wind Chill Advisory remains in effect until 9 am EST this
morning...

* wind chill... 10 to 15 below this morning.

* Impact... frost bite and hypothermia are likely if precautions
are not taken.

Precautionary/preparedness actions...

A Wind Chill Advisory means that very cold air and strong wind
will combine to generate low wind chill indices. Make sure you
dress appropriately.